sensor_id;sensor_type;location;lat;lon;timestamp;pressure;altitude;pressure_sealevel;temperature;humidity
53715;BME280;39608;55.630;37.864;2022-11-18T00:00:20;98699.72;;;-5.15;63.74
53715;BME280;39608;55.630;37.864;2022-11-18T00:05:24;98677.56;;;-5.14;63.35
53715;BME280;39608;55.630;37.864;2022-11-18T00:10:26;98692.84;;;-5.16;64.02
53715;BME280;39608;55.630;37.864;2022-11-18T00:15:28;98692.41;;;-5.13;64.14
53715;BME280;39608;55.630;37.864;2022-11-18T00:20:34;98690.19;;;-5.16;63.89
53715;BME280;39608;55.630;37.864;2022-11-18T00:25:36;98671.69;;;-5.16;63.89
53715;BME280;39608;55.630;37.864;2022-11-18T00:30:38;98666.81;;;-5.19;64.30
53715;BME280;39608;55.630;37.864;2022-11-18T00:35:42;98676.00;;;-5.22;64.28
53715;BME280;39608;55.630;37.864;2022-11-18T00:40:44;98684.72;;;-5.21;63.93
53715;BME280;39608;55.630;37.864;2022-11-18T00:45:45;98657.50;;;-5.22;63.99
53715;BME280;39608;55.630;37.864;2022-11-18T00:50:49;98661.97;;;-5.22;63.90
53715;BME280;39608;55.630;37.864;2022-11-18T00:55:52;98658.72;;;-5.24;63.92
53715;BME280;39608;55.630;37.864;2022-11-18T01:00:54;98652.22;;;-5.22;63.59
53715;BME280;39608;55.630;37.864;2022-11-18T01:05:57;98650.97;;;-5.19;63.90
53715;BME280;39608;55.630;37.864;2022-11-18T01:11:00;98643.84;;;-5.19;63.81
53715;BME280;39608;55.630;37.864;2022-11-18T01:16:17;98645.28;;;-5.16;63.72
53715;BME280;39608;55.630;37.864;2022-11-18T01:21:21;98628.22;;;-5.20;63.91
53715;BME280;39608;55.630;37.864;2022-11-18T01:26:23;98637.34;;;-5.16;64.21
53715;BME280;39608;55.630;37.864;2022-11-18T01:31:25;98624.13;;;-5.16;63.84
53715;BME280;39608;55.630;37.864;2022-11-18T01:36:31;98637.47;;;-5.11;63.71
53715;BME280;39608;55.630;37.864;2022-11-18T01:41:33;98630.59;;;-5.12;64.01
53715;BME280;39608;55.630;37.864;2022-11-18T01:46:35;98628.97;;;-5.13;63.81
53715;BME280;39608;55.630;37.864;2022-11-18T01:51:42;98632.38;;;-5.06;63.51
53715;BME280;39608;55.630;37.864;2022-11-18T01:56:51;98629.13;;;-5.08;63.39
53715;BME280;39608;55.630;37.864;2022-11-18T02:01:54;98648.88;;;-5.10;63.51
53715;BME280;39608;55.630;37.864;2022-11-18T02:07:00;98635.44;;;-5.09;63.80
53715;BME280;39608;55.630;37.864;2022-11-18T02:12:04;98630.38;;;-5.10;63.55
53715;BME280;39608;55.630;37.864;2022-11-18T02:17:10;98627.66;;;-5.04;63.15
53715;BME280;39608;55.630;37.864;2022-11-18T02:22:33;98608.38;;;-5.04;63.56
53715;BME280;39608;55.630;37.864;2022-11-18T02:33:23;98619.34;;;-5.01;63.14
53715;BME280;39608;55.630;37.864;2022-11-18T02:38:30;98626.22;;;-5.00;63.43
53715;BME280;39608;55.630;37.864;2022-11-18T02:43:39;98614.25;;;-5.02;63.31
53715;BME280;39608;55.630;37.864;2022-11-18T02:48:48;98611.81;;;-5.04;63.54
53715;BME280;39608;55.630;37.864;2022-11-18T02:53:52;98603.06;;;-5.04;63.36
53715;BME280;39608;55.630;37.864;2022-11-18T02:58:56;98605.50;;;-5.03;63.36
53715;BME280;39608;55.630;37.864;2022-11-18T03:03:59;98609.78;;;-5.02;63.37
53715;BME280;39608;55.630;37.864;2022-11-18T03:09:08;98589.53;;;-5.14;63.61
53715;BME280;39608;55.630;37.864;2022-11-18T03:14:21;98607.97;;;-5.08;63.62
53715;BME280;39608;55.630;37.864;2022-11-18T03:19:45;98603.47;;;-5.01;63.43
53715;BME280;39608;55.630;37.864;2022-11-18T03:24:55;98581.53;;;-5.08;63.50
53715;BME280;39608;55.630;37.864;2022-11-18T03:30:03;98604.69;;;-5.03;63.51
53715;BME280;39608;55.630;37.864;2022-11-18T03:35:11;98591.69;;;-5.05;63.71
53715;BME280;39608;55.630;37.864;2022-11-18T03:40:18;98591.53;;;-5.10;63.64
53715;BME280;39608;55.630;37.864;2022-11-18T03:45:24;98574.44;;;-5.07;63.65
53715;BME280;39608;55.630;37.864;2022-11-18T03:50:32;98586.56;;;-5.00;63.62
53715;BME280;39608;55.630;37.864;2022-11-18T03:55:39;98583.69;;;-4.98;63.70
53715;BME280;39608;55.630;37.864;2022-11-18T04:00:45;98560.59;;;-5.09;63.57
53715;BME280;39608;55.630;37.864;2022-11-18T04:05:53;98586.16;;;-4.96;63.51
53715;BME280;39608;55.630;37.864;2022-11-18T04:11:02;98582.22;;;-4.94;63.25
53715;BME280;39608;55.630;37.864;2022-11-18T04:16:07;98586.16;;;-4.96;63.49
53715;BME280;39608;55.630;37.864;2022-11-18T04:21:12;98575.72;;;-4.91;63.49
53715;BME280;39608;55.630;37.864;2022-11-18T04:26:14;98574.53;;;-4.95;63.68
53715;BME280;39608;55.630;37.864;2022-11-18T04:31:18;98582.84;;;-4.92;63.37
53715;BME280;39608;55.630;37.864;2022-11-18T04:36:22;98576.91;;;-4.87;63.50
53715;BME280;39608;55.630;37.864;2022-11-18T04:41:24;98574.25;;;-4.87;63.33
53715;BME280;39608;55.630;37.864;2022-11-18T04:46:46;98572.63;;;-4.88;63.22
53715;BME280;39608;55.630;37.864;2022-11-18T04:51:49;98558.81;;;-4.90;63.50
53715;BME280;39608;55.630;37.864;2022-11-18T04:56:52;98570.06;;;-4.95;63.53
53715;BME280;39608;55.630;37.864;2022-11-18T05:01:57;98559.03;;;-4.92;63.60
53715;BME280;39608;55.630;37.864;2022-11-18T05:07:03;98567.19;;;-4.93;63.76
53715;BME280;39608;55.630;37.864;2022-11-18T05:12:10;98566.19;;;-4.92;63.53
53715;BME280;39608;55.630;37.864;2022-11-18T05:17:29;98574.69;;;-4.90;63.87
53715;BME280;39608;55.630;37.864;2022-11-18T05:22:33;98569.78;;;-4.87;63.58
53715;BME280;39608;55.630;37.864;2022-11-18T05:27:35;98577.72;;;-4.87;63.77
53715;BME280;39608;55.630;37.864;2022-11-18T05:32:37;98579.53;;;-4.87;63.86
53715;BME280;39608;55.630;37.864;2022-11-18T05:37:40;98582.03;;;-4.92;64.18
53715;BME280;39608;55.630;37.864;2022-11-18T05:42:42;98577.91;;;-4.88;63.90
53715;BME280;39608;55.630;37.864;2022-11-18T05:48:02;98585.44;;;-4.85;63.90
53715;BME280;39608;55.630;37.864;2022-11-18T05:53:06;98589.03;;;-4.79;63.97
53715;BME280;39608;55.630;37.864;2022-11-18T05:58:08;98588.81;;;-4.78;63.84
53715;BME280;39608;55.630;37.864;2022-11-18T06:03:17;98590.63;;;-4.78;63.84
53715;BME280;39608;55.630;37.864;2022-11-18T06:08:25;98592.44;;;-4.72;63.79
53715;BME280;39608;55.630;37.864;2022-11-18T06:13:30;98555.53;;;-4.86;63.94
53715;BME280;39608;55.630;37.864;2022-11-18T06:18:35;98576.13;;;-4.69;63.71
53715;BME280;39608;55.630;37.864;2022-11-18T06:23:39;98589.50;;;-4.64;63.78
53715;BME280;39608;55.630;37.864;2022-11-18T06:28:43;98586.25;;;-4.66;63.59
53715;BME280;39608;55.630;37.864;2022-11-18T06:33:46;98591.53;;;-4.66;63.90
53715;BME280;39608;55.630;37.864;2022-11-18T06:38:49;98583.88;;;-4.74;63.90
53715;BME280;39608;55.630;37.864;2022-11-18T06:43:51;98575.38;;;-4.76;63.99
53715;BME280;39608;55.630;37.864;2022-11-18T06:48:53;98578.59;;;-4.74;64.22
53715;BME280;39608;55.630;37.864;2022-11-18T06:53:57;98589.13;;;-4.68;63.94
53715;BME280;39608;55.630;37.864;2022-11-18T06:58:59;98573.84;;;-4.66;64.05
53715;BME280;39608;55.630;37.864;2022-11-18T07:04:01;98575.56;;;-4.53;63.99
53715;BME280;39608;55.630;37.864;2022-11-18T07:09:05;98590.47;;;-4.40;63.85
53715;BME280;39608;55.630;37.864;2022-11-18T07:14:08;98583.56;;;-4.41;63.85
53715;BME280;39608;55.630;37.864;2022-11-18T07:19:11;98585.41;;;-4.41;63.90
53715;BME280;39608;55.630;37.864;2022-11-18T07:24:15;98588.28;;;-4.43;63.81
53715;BME280;39608;55.630;37.864;2022-11-18T07:29:17;98588.28;;;-4.43;63.90
53715;BME280;39608;55.630;37.864;2022-11-18T07:34:19;98586.34;;;-4.36;63.76
53715;BME280;39608;55.630;37.864;2022-11-18T07:39:22;98581.66;;;-4.34;64.05
53715;BME280;39608;55.630;37.864;2022-11-18T07:44:24;98572.91;;;-4.34;63.80
53715;BME280;39608;55.630;37.864;2022-11-18T07:49:26;98582.81;;;-4.30;64.15
53715;BME280;39608;55.630;37.864;2022-11-18T07:54:30;98589.38;;;-4.32;63.97
53715;BME280;39608;55.630;37.864;2022-11-18T07:59:32;98585.47;;;-4.30;64.07
53715;BME280;39608;55.630;37.864;2022-11-18T08:04:35;98605.47;;;-4.15;63.57
53715;BME280;39608;55.630;37.864;2022-11-18T08:09:39;98604.81;;;-4.10;63.83
53715;BME280;39608;55.630;37.864;2022-11-18T08:14:41;98609.88;;;-4.09;63.75
53715;BME280;39608;55.630;37.864;2022-11-18T08:19:43;98600.69;;;-4.06;63.90
53715;BME280;39608;55.630;37.864;2022-11-18T08:24:46;98602.66;;;-4.02;63.96
53715;BME280;39608;55.630;37.864;2022-11-18T08:29:48;98611.13;;;-3.93;63.81
53715;BME280;39608;55.630;37.864;2022-11-18T08:34:50;98613.09;;;-3.88;63.76
53715;BME280;39608;55.630;37.864;2022-11-18T08:39:57;98605.00;;;-3.93;63.54
53715;BME280;39608;55.630;37.864;2022-11-18T08:44:59;98609.56;;;-3.82;63.44
53715;BME280;39608;55.630;37.864;2022-11-18T08:50:02;98622.38;;;-3.79;63.30
53715;BME280;39608;55.630;37.864;2022-11-18T08:55:07;98617.16;;;-3.86;63.42
53715;BME280;39608;55.630;37.864;2022-11-18T09:00:11;98632.81;;;-3.84;63.47
53715;BME280;39608;55.630;37.864;2022-11-18T09:05:13;98617.59;;;-3.89;63.48
53715;BME280;39608;55.630;37.864;2022-11-18T09:10:17;98622.56;;;-3.81;63.48
53715;BME280;39608;55.630;37.864;2022-11-18T09:15:19;98637.94;;;-3.71;63.51
53715;BME280;39608;55.630;37.864;2022-11-18T09:20:23;98630.81;;;-3.70;63.42
53715;BME280;39608;55.630;37.864;2022-11-18T09:25:27;98637.75;;;-3.69;63.48
53715;BME280;39608;55.630;37.864;2022-11-18T09:30:30;98620.31;;;-3.77;63.45
53715;BME280;39608;55.630;37.864;2022-11-18T09:35:33;98634.56;;;-3.78;63.86
53715;BME280;39608;55.630;37.864;2022-11-18T09:40:44;98630.66;;;-3.75;63.73
53715;BME280;39608;55.630;37.864;2022-11-18T09:45:55;98627.69;;;-3.79;63.81
53715;BME280;39608;55.630;37.864;2022-11-18T09:50:59;98639.88;;;-3.78;63.49
53715;BME280;39608;55.630;37.864;2022-11-18T09:56:03;98638.28;;;-3.79;63.47
53715;BME280;39608;55.630;37.864;2022-11-18T10:01:10;98633.53;;;-3.77;63.41
53715;BME280;39608;55.630;37.864;2022-11-18T10:06:19;98640.25;;;-3.74;63.31
53715;BME280;39608;55.630;37.864;2022-11-18T10:11:27;98638.84;;;-3.77;63.62
53715;BME280;39608;55.630;37.864;2022-11-18T10:16:42;98649.59;;;-3.72;63.48
53715;BME280;39608;55.630;37.864;2022-11-18T10:21:57;98645.53;;;-3.74;63.32
53715;BME280;39608;55.630;37.864;2022-11-18T10:27:09;98650.84;;;-3.74;63.75
53715;BME280;39608;55.630;37.864;2022-11-18T10:32:13;98647.47;;;-3.82;63.62
53715;BME280;39608;55.630;37.864;2022-11-18T10:37:24;98656.94;;;-3.74;63.97
53715;BME280;39608;55.630;37.864;2022-11-18T10:42:33;98656.47;;;-3.71;63.83
53715;BME280;39608;55.630;37.864;2022-11-18T10:47:36;98667.47;;;-3.67;63.62
53715;BME280;39608;55.630;37.864;2022-11-18T10:52:51;98647.03;;;-3.79;63.79
53715;BME280;39608;55.630;37.864;2022-11-18T10:57:58;98668.47;;;-3.68;63.72
53715;BME280;39608;55.630;37.864;2022-11-18T11:03:19;98630.47;;;-3.92;63.54
53715;BME280;39608;55.630;37.864;2022-11-18T11:08:22;98674.00;;;-3.70;64.08
53715;BME280;39608;55.630;37.864;2022-11-18T11:13:28;98661.06;;;-3.78;63.88
53715;BME280;39608;55.630;37.864;2022-11-18T11:18:34;98675.78;;;-3.64;64.00
53715;BME280;39608;55.630;37.864;2022-11-18T11:23:43;98674.00;;;-3.70;64.12
53715;BME280;39608;55.630;37.864;2022-11-18T11:28:50;98679.97;;;-3.74;64.15
53715;BME280;39608;55.630;37.864;2022-11-18T11:33:58;98681.47;;;-3.79;64.15
53715;BME280;39608;55.630;37.864;2022-11-18T11:39:18;98700.88;;;-3.66;64.03
53715;BME280;39608;55.630;37.864;2022-11-18T11:44:34;98705.00;;;-3.70;64.25
53715;BME280;39608;55.630;37.864;2022-11-18T11:49:51;98702.66;;;-3.79;64.47
53715;BME280;39608;55.630;37.864;2022-11-18T11:55:00;98702.44;;;-3.77;64.67
53715;BME280;39608;55.630;37.864;2022-11-18T12:00:11;98712.56;;;-3.74;64.58
53715;BME280;39608;55.630;37.864;2022-11-18T12:05:21;98715.66;;;-3.77;64.78
53715;BME280;39608;55.630;37.864;2022-11-18T12:10:31;98712.63;;;-3.81;64.62
53715;BME280;39608;55.630;37.864;2022-11-18T12:15:47;98717.75;;;-3.79;64.90
53715;BME280;39608;55.630;37.864;2022-11-18T12:20:53;98725.69;;;-3.79;64.88
53715;BME280;39608;55.630;37.864;2022-11-18T12:25:58;98727.16;;;-3.83;64.80
53715;BME280;39608;55.630;37.864;2022-11-18T12:36:43;98757.69;;;-3.81;64.92
53715;BME280;39608;55.630;37.864;2022-11-18T12:41:51;98749.72;;;-3.81;65.19
53715;BME280;39608;55.630;37.864;2022-11-18T12:47:12;98756.88;;;-3.81;64.85
53715;BME280;39608;55.630;37.864;2022-11-18T12:58:02;98768.38;;;-3.69;65.06
53715;BME280;39608;55.630;37.864;2022-11-18T13:03:04;98759.81;;;-3.71;64.66
53715;BME280;39608;55.630;37.864;2022-11-18T13:08:10;98764.59;;;-3.61;64.81
53715;BME280;39608;55.630;37.864;2022-11-18T13:13:25;98781.25;;;-3.54;64.57
53715;BME280;39608;55.630;37.864;2022-11-18T13:18:28;98791.25;;;-3.56;64.66
53715;BME280;39608;55.630;37.864;2022-11-18T13:23:31;98788.66;;;-3.63;64.61
53715;BME280;39608;55.630;37.864;2022-11-18T13:29:05;98801.06;;;-3.56;64.44
53715;BME280;39608;55.630;37.864;2022-11-18T13:34:21;98825.88;;;-3.51;64.33
53715;BME280;39608;55.630;37.864;2022-11-18T13:39:29;98822.91;;;-3.61;64.10
53715;BME280;39608;55.630;37.864;2022-11-18T13:44:35;98832.53;;;-3.67;64.33
53715;BME280;39608;55.630;37.864;2022-11-18T13:49:47;98833.03;;;-3.76;64.09
53715;BME280;39608;55.630;37.864;2022-11-18T13:54:57;98838.28;;;-3.70;64.29
53715;BME280;39608;55.630;37.864;2022-11-18T14:00:18;98834.78;;;-3.64;64.12
53715;BME280;39608;55.630;37.864;2022-11-18T14:05:22;98840.66;;;-3.62;64.10
53715;BME280;39608;55.630;37.864;2022-11-18T14:10:38;98834.47;;;-3.55;64.10
53715;BME280;39608;55.630;37.864;2022-11-18T14:15:43;98836.81;;;-3.66;63.91
53715;BME280;39608;55.630;37.864;2022-11-18T14:20:52;98844.09;;;-3.61;63.96
53715;BME280;39608;55.630;37.864;2022-11-18T14:25:58;98836.66;;;-3.71;63.92
53715;BME280;39608;55.630;37.864;2022-11-18T14:31:22;98857.16;;;-3.59;64.18
53715;BME280;39608;55.630;37.864;2022-11-18T14:36:32;98858.63;;;-3.64;63.95
53715;BME280;39608;55.630;37.864;2022-11-18T14:41:34;98856.25;;;-3.72;63.96
53715;BME280;39608;55.630;37.864;2022-11-18T14:46:54;98849.72;;;-3.69;64.04
53715;BME280;39608;55.630;37.864;2022-11-18T14:51:58;98846.06;;;-3.75;64.07
53715;BME280;39608;55.630;37.864;2022-11-18T14:57:03;98823.22;;;-3.95;63.95
53715;BME280;39608;55.630;37.864;2022-11-18T15:02:12;98799.06;;;-4.05;64.26
53715;BME280;39608;55.630;37.864;2022-11-18T15:07:15;98831.38;;;-3.96;64.20
53715;BME280;39608;55.630;37.864;2022-11-18T15:12:25;98833.66;;;-4.00;64.19
53715;BME280;39608;55.630;37.864;2022-11-18T15:17:29;98842.78;;;-3.96;64.31
53715;BME280;39608;55.630;37.864;2022-11-18T15:22:34;98846.47;;;-3.97;64.19
53715;BME280;39608;55.630;37.864;2022-11-18T15:27:37;98842.63;;;-4.01;64.66
53715;BME280;39608;55.630;37.864;2022-11-18T15:32:42;98853.59;;;-3.97;64.42
53715;BME280;39608;55.630;37.864;2022-11-18T15:37:44;98854.00;;;-4.00;64.46
53715;BME280;39608;55.630;37.864;2022-11-18T15:42:48;98860.28;;;-3.95;64.24
53715;BME280;39608;55.630;37.864;2022-11-18T15:47:57;98861.56;;;-3.97;64.43
53715;BME280;39608;55.630;37.864;2022-11-18T15:53:00;98862.34;;;-3.97;64.23
53715;BME280;39608;55.630;37.864;2022-11-18T15:58:05;98878.03;;;-3.95;64.17
53715;BME280;39608;55.630;37.864;2022-11-18T16:03:10;98889.41;;;-3.95;64.27
53715;BME280;39608;55.630;37.864;2022-11-18T16:08:12;98891.28;;;-3.95;64.42
53715;BME280;39608;55.630;37.864;2022-11-18T16:13:19;98907.13;;;-3.88;64.32
53715;BME280;39608;55.630;37.864;2022-11-18T16:18:30;98914.41;;;-3.84;64.50
53715;BME280;39608;55.630;37.864;2022-11-18T16:23:32;98913.16;;;-3.81;64.51
53715;BME280;39608;55.630;37.864;2022-11-18T16:28:35;98922.13;;;-3.82;64.42
53715;BME280;39608;55.630;37.864;2022-11-18T16:33:40;98912.72;;;-3.78;64.57
53715;BME280;39608;55.630;37.864;2022-11-18T16:38:42;98929.06;;;-3.81;64.34
53715;BME280;39608;55.630;37.864;2022-11-18T16:43:47;98939.91;;;-3.89;64.43
53715;BME280;39608;55.630;37.864;2022-11-18T16:48:54;98938.16;;;-3.96;64.12
53715;BME280;39608;55.630;37.864;2022-11-18T16:53:58;98948.88;;;-3.90;64.47
53715;BME280;39608;55.630;37.864;2022-11-18T16:59:04;98962.31;;;-3.85;64.25
53715;BME280;39608;55.630;37.864;2022-11-18T17:04:08;98969.69;;;-3.87;64.39
53715;BME280;39608;55.630;37.864;2022-11-18T17:09:12;98972.34;;;-3.94;64.20
53715;BME280;39608;55.630;37.864;2022-11-18T17:14:15;98985.19;;;-3.98;64.46
53715;BME280;39608;55.630;37.864;2022-11-18T17:19:21;98993.72;;;-3.89;64.60
53715;BME280;39608;55.630;37.864;2022-11-18T17:24:24;98996.38;;;-3.89;64.33
53715;BME280;39608;55.630;37.864;2022-11-18T17:29:26;99000.66;;;-3.95;64.54
53715;BME280;39608;55.630;37.864;2022-11-18T17:34:29;99007.59;;;-3.93;64.37
53715;BME280;39608;55.630;37.864;2022-11-18T17:39:31;99004.72;;;-3.92;64.50
53715;BME280;39608;55.630;37.864;2022-11-18T17:44:33;99008.00;;;-3.90;64.63
53715;BME280;39608;55.630;37.864;2022-11-18T17:49:37;99009.81;;;-3.90;64.47
53715;BME280;39608;55.630;37.864;2022-11-18T17:54:39;99018.19;;;-3.93;64.47
53715;BME280;39608;55.630;37.864;2022-11-18T17:59:41;99006.78;;;-3.94;64.34
53715;BME280;39608;55.630;37.864;2022-11-18T18:04:46;99024.50;;;-3.95;64.70
53715;BME280;39608;55.630;37.864;2022-11-18T18:09:48;99025.13;;;-3.92;64.87
53715;BME280;39608;55.630;37.864;2022-11-18T18:14:50;99033.25;;;-3.87;64.50
53715;BME280;39608;55.630;37.864;2022-11-18T18:19:53;99037.94;;;-3.89;64.59
53715;BME280;39608;55.630;37.864;2022-11-18T18:24:55;99039.16;;;-3.92;64.74
53715;BME280;39608;55.630;37.864;2022-11-18T18:29:57;99038.75;;;-3.89;64.89
53715;BME280;39608;55.630;37.864;2022-11-18T18:35:01;99041.72;;;-3.72;65.24
53715;BME280;39608;55.630;37.864;2022-11-18T18:40:04;99041.66;;;-3.65;65.02
53715;BME280;39608;55.630;37.864;2022-11-18T18:45:08;99043.72;;;-3.67;64.98
53715;BME280;39608;55.630;37.864;2022-11-18T18:50:30;99048.22;;;-3.68;64.88
53715;BME280;39608;55.630;37.864;2022-11-18T18:55:32;99063.72;;;-3.71;64.84
53715;BME280;39608;55.630;37.864;2022-11-18T19:00:36;99064.16;;;-3.74;64.93
53715;BME280;39608;55.630;37.864;2022-11-18T19:05:39;99079.19;;;-3.68;65.02
53715;BME280;39608;55.630;37.864;2022-11-18T19:10:42;99071.84;;;-3.66;65.25
53715;BME280;39608;55.630;37.864;2022-11-18T19:15:45;99079.97;;;-3.61;65.09
53715;BME280;39608;55.630;37.864;2022-11-18T19:20:48;99068.13;;;-3.58;64.95
53715;BME280;39608;55.630;37.864;2022-11-18T19:25:57;99089.72;;;-3.55;65.08
53715;BME280;39608;55.630;37.864;2022-11-18T19:30:59;99098.72;;;-3.63;64.87
53715;BME280;39608;55.630;37.864;2022-11-18T19:36:04;99093.84;;;-3.66;64.66
53715;BME280;39608;55.630;37.864;2022-11-18T19:41:08;99086.81;;;-3.85;64.93
53715;BME280;39608;55.630;37.864;2022-11-18T19:46:11;99113.06;;;-3.77;64.94
53715;BME280;39608;55.630;37.864;2022-11-18T19:51:14;99131.19;;;-3.74;64.98
53715;BME280;39608;55.630;37.864;2022-11-18T19:56:17;99135.50;;;-3.80;65.19
53715;BME280;39608;55.630;37.864;2022-11-18T20:01:24;99153.25;;;-3.80;65.17
53715;BME280;39608;55.630;37.864;2022-11-18T20:06:28;99152.63;;;-3.82;65.24
53715;BME280;39608;55.630;37.864;2022-11-18T20:11:30;99166.09;;;-3.90;65.40
53715;BME280;39608;55.630;37.864;2022-11-18T20:16:35;99164.88;;;-3.95;65.17
53715;BME280;39608;55.630;37.864;2022-11-18T20:21:40;99154.91;;;-3.92;65.33
53715;BME280;39608;55.630;37.864;2022-11-18T20:26:43;99156.56;;;-3.98;65.36
53715;BME280;39608;55.630;37.864;2022-11-18T20:31:45;99163.91;;;-4.07;65.13
53715;BME280;39608;55.630;37.864;2022-11-18T20:36:49;99168.59;;;-4.16;65.15
53715;BME280;39608;55.630;37.864;2022-11-18T20:41:52;99181.25;;;-4.24;65.08
53715;BME280;39608;55.630;37.864;2022-11-18T20:47:12;99198.56;;;-4.22;65.19
53715;BME280;39608;55.630;37.864;2022-11-18T20:52:15;99209.75;;;-4.20;65.35
53715;BME280;39608;55.630;37.864;2022-11-18T20:57:17;99216.88;;;-4.20;65.42
53715;BME280;39608;55.630;37.864;2022-11-18T21:02:19;99219.97;;;-4.23;65.21
53715;BME280;39608;55.630;37.864;2022-11-18T21:07:22;99238.88;;;-4.20;65.40
53715;BME280;39608;55.630;37.864;2022-11-18T21:12:25;99233.41;;;-4.25;65.42
53715;BME280;39608;55.630;37.864;2022-11-18T21:17:26;99234.84;;;-4.22;65.29
53715;BME280;39608;55.630;37.864;2022-11-18T21:22:30;99252.75;;;-4.18;65.30
53715;BME280;39608;55.630;37.864;2022-11-18T21:27:32;99262.72;;;-4.20;65.62
53715;BME280;39608;55.630;37.864;2022-11-18T21:32:34;99269.63;;;-4.19;65.38
53715;BME280;39608;55.630;37.864;2022-11-18T21:37:37;99286.53;;;-4.13;65.49
53715;BME280;39608;55.630;37.864;2022-11-18T21:42:39;99292.66;;;-4.13;65.44
53715;BME280;39608;55.630;37.864;2022-11-18T21:47:41;99306.94;;;-4.07;65.45
53715;BME280;39608;55.630;37.864;2022-11-18T21:52:45;99305.69;;;-3.98;65.28
53715;BME280;39608;55.630;37.864;2022-11-18T21:57:47;99314.25;;;-3.89;65.27
53715;BME280;39608;55.630;37.864;2022-11-18T22:02:49;99303.44;;;-3.87;65.51
53715;BME280;39608;55.630;37.864;2022-11-18T22:07:52;99314.00;;;-3.67;65.25
53715;BME280;39608;55.630;37.864;2022-11-18T22:12:54;99320.31;;;-3.62;64.93
53715;BME280;39608;55.630;37.864;2022-11-18T22:17:56;99319.69;;;-3.57;65.06
53715;BME280;39608;55.630;37.864;2022-11-18T22:23:00;99333.56;;;-3.55;64.92
53715;BME280;39608;55.630;37.864;2022-11-18T22:28:03;99329.91;;;-3.54;65.11
53715;BME280;39608;55.630;37.864;2022-11-18T22:33:05;99345.56;;;-3.46;65.14
53715;BME280;39608;55.630;37.864;2022-11-18T22:38:08;99343.31;;;-3.42;64.83
53715;BME280;39608;55.630;37.864;2022-11-18T22:43:10;99343.13;;;-3.40;64.59
53715;BME280;39608;55.630;37.864;2022-11-18T22:48:12;99359.44;;;-3.37;65.01
53715;BME280;39608;55.630;37.864;2022-11-18T22:53:15;99360.84;;;-3.34;64.35
53715;BME280;39608;55.630;37.864;2022-11-18T22:58:17;99356.00;;;-3.51;64.43
53715;BME280;39608;55.630;37.864;2022-11-18T23:03:19;99359.66;;;-3.52;64.77
53715;BME280;39608;55.630;37.864;2022-11-18T23:08:23;99366.00;;;-3.59;64.44
53715;BME280;39608;55.630;37.864;2022-11-18T23:13:25;99376.19;;;-3.56;64.61
53715;BME280;39608;55.630;37.864;2022-11-18T23:18:44;99378.84;;;-3.56;64.78
53715;BME280;39608;55.630;37.864;2022-11-18T23:23:48;99389.81;;;-3.53;64.54
53715;BME280;39608;55.630;37.864;2022-11-18T23:28:50;99402.28;;;-3.53;64.26
53715;BME280;39608;55.630;37.864;2022-11-18T23:33:52;99416.31;;;-3.53;64.67
53715;BME280;39608;55.630;37.864;2022-11-18T23:38:56;99415.31;;;-3.52;64.53
53715;BME280;39608;55.630;37.864;2022-11-18T23:43:58;99435.72;;;-3.52;64.59
53715;BME280;39608;55.630;37.864;2022-11-18T23:49:00;99433.28;;;-3.54;64.62
53715;BME280;39608;55.630;37.864;2022-11-18T23:54:03;99435.94;;;-3.54;64.47
53715;BME280;39608;55.630;37.864;2022-11-18T23:59:05;99438.75;;;-3.55;64.38
